Time;durP1;ratioP1;P1;durP2;ratioP2;P2;SDS_P1;SDS_P2;PMS_P1;PMS_P2;Temp;Humidity;BMP_temperature;BMP_pressure;BME280_temperature;BME280_humidity;BME280_pressure;Samples;Min_cycle;Max_cycle;Signal;HPM_P1;HPM_P2
2022/11/13 00:02:10;;;;;;;8.70;6.13;;;;;;;-0.42;100.00;97446.28;4965721;28;20452;-73
2022/11/13 00:04:55;;;;;;;7.83;5.60;;;;;;;-0.15;100.00;97452.56;4947576;28;20479;-73
2022/11/13 00:07:40;;;;;;;15.90;8.30;;;;;;;-0.29;100.00;97464.22;4971523;28;20557;-73
2022/11/13 00:10:25;;;;;;;12.57;6.70;;;;;;;-0.36;100.00;97460.97;4984734;28;20450;-73
2022/11/13 00:13:11;;;;;;;11.20;5.70;;;;;;;-0.35;100.00;97459.97;4968141;28;20944;-73
2022/11/13 00:16:04;;;;;;;12.97;6.10;;;;;;;-0.25;100.00;97456.78;4972191;28;20500;-74
2022/11/13 00:18:50;;;;;;;8.40;4.47;;;;;;;-0.40;100.00;97459.84;4973995;28;20448;-73
2022/11/13 00:21:35;;;;;;;29.43;7.50;;;;;;;-0.74;100.00;97417.31;4972968;28;20956;-73
2022/11/13 00:24:20;;;;;;;60.33;10.37;;;;;;;-0.78;100.00;97422.16;4986624;28;20417;-74
2022/11/13 00:27:06;;;;;;;16.53;6.03;;;;;;;-0.51;100.00;97451.06;4973679;28;20979;-73
2022/11/13 00:29:51;;;;;;;11.23;6.40;;;;;;;-0.53;100.00;97447.13;4986249;28;20561;-73
2022/11/13 00:32:36;;;;;;;9.30;6.07;;;;;;;-0.47;100.00;97443.59;4963005;28;20562;-73
2022/11/13 00:35:22;;;;;;;5.37;4.87;;;;;;;-0.47;100.00;97441.00;4973497;28;20417;-73
2022/11/13 00:38:07;;;;;;;5.93;5.43;;;;;;;-0.43;100.00;97444.72;4986351;28;20623;-73
2022/11/13 00:40:52;;;;;;;10.13;6.67;;;;;;;-0.45;100.00;97451.94;4973540;28;20480;-73
2022/11/13 00:43:38;;;;;;;9.33;6.00;;;;;;;-0.41;100.00;97425.28;4973386;28;20424;-73
2022/11/13 00:46:23;;;;;;;6.03;5.53;;;;;;;-0.48;100.00;97426.44;4973309;28;20935;-73
2022/11/13 00:49:09;;;;;;;6.60;6.10;;;;;;;-0.37;100.00;97451.59;4971822;28;20515;-74
2022/11/13 00:51:54;;;;;;;5.70;5.20;;;;;;;-0.52;100.00;97417.53;4985820;28;20788;-74
2022/11/13 00:54:39;;;;;;;7.33;6.63;;;;;;;-0.51;100.00;97419.91;4973239;28;20531;-74
2022/11/13 00:57:24;;;;;;;5.70;5.20;;;;;;;-0.49;100.00;97430.84;4972089;28;20444;-74
2022/11/13 01:00:10;;;;;;;9.23;5.67;;;;;;;-0.45;100.00;97418.19;4972963;28;20415;-74
2022/11/13 01:02:59;;;;;;;8.70;7.20;;;;;;;-0.63;100.00;97442.47;4985395;28;20424;-74
2022/11/13 01:05:46;;;;;;;5.83;5.30;;;;;;;-0.69;100.00;97444.16;4974013;28;20468;-73
2022/11/13 01:08:31;;;;;;;6.40;5.80;;;;;;;-0.60;100.00;97427.22;4980885;28;20555;-73
2022/11/13 01:11:19;;;;;;;6.20;5.63;;;;;;;-0.86;100.00;97426.91;4971911;28;20443;-73
2022/11/13 01:14:04;;;;;;;7.20;6.67;;;;;;;-1.14;100.00;97396.44;4972163;28;20425;-73
2022/11/13 01:16:49;;;;;;;7.03;6.43;;;;;;;-1.12;100.00;97397.00;4973041;28;20458;-74
2022/11/13 01:19:34;;;;;;;6.97;6.30;;;;;;;-0.98;100.00;97424.28;4973129;28;21094;-73
2022/11/13 01:22:19;;;;;;;7.90;7.00;;;;;;;-1.23;100.00;97385.56;4971820;28;20432;-73
2022/11/13 01:25:06;;;;;;;9.20;8.30;;;;;;;-1.33;100.00;97395.75;4972859;28;20792;-73
2022/11/13 01:27:51;;;;;;;9.40;7.90;;;;;;;-1.02;100.00;97423.19;4971748;28;20843;-73
2022/11/13 01:30:38;;;;;;;10.00;7.93;;;;;;;-1.25;100.00;97380.63;4972877;28;20427;-73
2022/11/13 01:33:23;;;;;;;10.13;9.13;;;;;;;-1.10;100.00;97392.34;4972663;28;20511;-73
2022/11/13 01:36:14;;;;;;;12.13;9.90;;;;;;;-1.07;100.00;97416.06;4972741;28;20940;-73
2022/11/13 01:39:00;;;;;;;10.33;9.33;;;;;;;-1.26;100.00;97391.22;4961179;28;20499;-73
2022/11/13 01:41:45;;;;;;;9.30;8.47;;;;;;;-0.91;100.00;97417.19;4985127;28;20905;-73
2022/11/13 01:44:45;;;;;;;9.60;8.60;;;;;;;-0.91;100.00;97412.81;4972655;28;20435;-73
2022/11/13 01:47:31;;;;;;;9.53;8.10;;;;;;;-0.70;100.00;97410.63;4972539;28;20536;-73
2022/11/13 01:50:16;;;;;;;10.90;8.30;;;;;;;-0.89;100.00;97381.44;4971580;28;20976;-73
2022/11/13 01:53:01;;;;;;;9.53;8.53;;;;;;;-0.87;100.00;97386.38;4971506;28;20435;-73
2022/11/13 01:55:47;;;;;;;7.90;6.80;;;;;;;-0.79;100.00;97392.03;4971541;28;20425;-73
2022/11/13 01:58:32;;;;;;;8.10;7.30;;;;;;;-0.94;100.00;97412.44;4972201;28;20439;-73
2022/11/13 02:01:17;;;;;;;9.30;8.50;;;;;;;-1.29;100.00;97379.50;4971399;28;20431;-73
2022/11/13 02:04:03;;;;;;;7.90;7.10;;;;;;;-1.37;100.00;97381.63;4972435;28;20470;-73
2022/11/13 02:06:58;;;;;;;6.97;6.37;;;;;;;-1.46;100.00;97383.75;4971372;28;20447;-73
2022/11/13 02:09:48;;;;;;;5.93;5.43;;;;;;;-1.31;100.00;97378.16;4972442;28;20424;-73
2022/11/13 02:12:36;;;;;;;6.40;5.80;;;;;;;-1.18;100.00;97390.91;4971069;28;20428;-73
2022/11/13 02:15:24;;;;;;;5.60;5.10;;;;;;;-1.17;100.00;97381.31;4972087;28;20420;-73
2022/11/13 02:18:10;;;;;;;7.13;6.43;;;;;;;-1.08;100.00;97385.91;4972296;28;20439;-73
2022/11/13 02:21:09;;;;;;;9.20;7.97;;;;;;;-0.90;100.00;97380.63;4972056;28;20419;-73
2022/11/13 02:24:17;;;;;;;8.00;7.13;;;;;;;-0.93;100.00;97380.31;4972227;28;20424;-73
2022/11/13 02:27:09;;;;;;;10.23;9.33;;;;;;;-0.90;100.00;97377.25;4988179;28;20460;-73
2022/11/13 02:29:55;;;;;;;8.90;8.10;;;;;;;-0.88;100.00;97372.63;4976068;28;20424;-73
2022/11/13 02:32:45;;;;;;;10.43;9.10;;;;;;;-0.99;100.00;97369.00;4992030;28;20435;-73
2022/11/13 02:35:36;;;;;;;14.47;9.70;;;;;;;-1.41;100.00;97292.31;4995043;28;20422;-73
2022/11/13 02:38:21;;;;;;;10.80;9.70;;;;;;;-1.11;100.00;97355.25;4994098;28;20474;-73
2022/11/13 02:41:06;;;;;;;11.30;8.87;;;;;;;-1.29;100.00;97339.81;4994252;28;20914;-73
2022/11/13 02:43:52;;;;;;;10.30;9.30;;;;;;;-1.30;100.00;97335.63;4994949;28;20471;-72
2022/11/13 02:46:37;;;;;;;12.90;8.13;;;;;;;-1.25;100.00;97346.09;4994738;28;20419;-72
2022/11/13 02:49:22;;;;;;;10.33;8.87;;;;;;;-1.38;100.00;97313.41;4994808;28;20486;-72
2022/11/13 02:52:07;;;;;;;12.77;10.57;;;;;;;-1.34;100.00;97311.91;4995067;28;20427;-72
2022/11/13 02:54:53;;;;;;;11.67;10.00;;;;;;;-1.06;100.00;97357.19;4994993;28;20795;-72
2022/11/13 02:57:38;;;;;;;11.03;9.00;;;;;;;-1.07;100.00;97364.19;4993753;28;20946;-73
2022/11/13 03:00:24;;;;;;;14.10;9.63;;;;;;;-1.12;100.00;97351.06;4994683;28;20430;-73
2022/11/13 03:03:09;;;;;;;12.80;8.20;;;;;;;-1.26;100.00;97345.31;4975568;28;20423;-73
2022/11/13 03:05:54;;;;;;;12.83;9.90;;;;;;;-1.29;100.00;97344.97;4975328;28;20959;-73
2022/11/13 03:08:39;;;;;;;13.00;8.93;;;;;;;-1.40;100.00;97341.38;4974923;28;20540;-73
2022/11/13 03:11:24;;;;;;;10.23;9.20;;;;;;;-1.30;100.00;97325.25;4987521;28;20464;-73
2022/11/13 03:14:10;;;;;;;9.97;9.07;;;;;;;-1.64;100.00;97299.06;4974155;28;20455;-73
2022/11/13 03:16:55;;;;;;;9.60;8.43;;;;;;;-1.59;100.00;97308.78;4973829;28;20466;-73
2022/11/13 03:19:40;;;;;;;14.87;8.20;;;;;;;-1.33;100.00;97333.50;4975165;28;20502;-73
2022/11/13 03:22:26;;;;;;;9.73;8.83;;;;;;;-1.37;100.00;97325.34;4974990;28;20431;-73
2022/11/13 03:25:11;;;;;;;14.73;8.27;;;;;;;-1.35;100.00;97327.72;4974699;28;20436;-73
2022/11/13 03:27:56;;;;;;;8.80;7.87;;;;;;;-1.67;100.00;97303.91;4974886;28;20451;-73
2022/11/13 03:30:42;;;;;;;12.63;5.87;;;;;;;-1.39;100.00;97326.59;4973914;28;20776;-73
2022/11/13 03:33:27;;;;;;;8.47;6.80;;;;;;;-1.28;100.00;97331.78;4974756;28;20430;-73
2022/11/13 03:36:12;;;;;;;9.97;8.23;;;;;;;-1.34;100.00;97330.06;4974469;28;20420;-73
2022/11/13 03:38:57;;;;;;;8.10;7.30;;;;;;;-1.36;100.00;97321.75;4974135;28;20411;-73
2022/11/13 03:41:43;;;;;;;10.30;7.87;;;;;;;-1.45;100.00;97294.59;4974684;28;20951;-73
2022/11/13 03:44:28;;;;;;;8.03;7.23;;;;;;;-1.31;100.00;97319.28;4974654;28;20436;-73
2022/11/13 03:47:14;;;;;;;8.27;5.70;;;;;;;-1.28;100.00;97318.03;4974560;28;21309;-73
2022/11/13 03:49:59;;;;;;;6.10;5.50;;;;;;;-1.24;100.00;97316.56;4973157;28;20875;-73
2022/11/13 03:52:44;;;;;;;6.67;5.50;;;;;;;-1.39;100.00;97288.47;4974256;28;21255;-73
2022/11/13 03:55:30;;;;;;;6.20;4.77;;;;;;;-1.79;100.00;97265.00;4986977;28;20428;-73
2022/11/13 03:58:15;;;;;;;5.63;5.00;;;;;;;-1.68;100.00;97299.75;4974252;28;20492;-73
2022/11/13 04:01:00;;;;;;;8.03;6.20;;;;;;;-1.77;100.00;97304.44;4973242;28;20513;-73
2022/11/13 04:03:46;;;;;;;6.93;6.33;;;;;;;-1.96;100.00;97270.06;4973234;28;20420;-73
2022/11/13 04:06:31;;;;;;;9.33;6.10;;;;;;;-1.86;100.00;97304.00;4973932;28;20484;-73
2022/11/13 04:09:16;;;;;;;7.77;6.30;;;;;;;-1.70;100.00;97307.75;4986485;28;20466;-73
2022/11/13 04:12:01;;;;;;;8.40;7.60;;;;;;;-1.70;100.00;97289.59;4972816;28;20511;-73
2022/11/13 04:14:47;;;;;;;7.37;6.67;;;;;;;-1.70;100.00;97297.38;4973048;28;20428;-73
2022/11/13 04:17:32;;;;;;;9.17;7.30;;;;;;;-1.69;100.00;97291.19;4978892;28;20501;-73
2022/11/13 04:20:17;;;;;;;6.50;5.90;;;;;;;-1.84;100.00;97283.03;4993386;28;20817;-73
2022/11/13 04:23:06;;;;;;;6.87;6.27;;;;;;;-1.79;100.00;97283.16;4993472;28;20962;-73
2022/11/13 04:25:51;;;;;;;8.40;7.60;;;;;;;-1.81;100.00;97280.78;4960172;28;20784;-73
2022/11/13 04:28:37;;;;;;;8.77;6.80;;;;;;;-1.72;100.00;97267.50;4973591;28;20484;-72
2022/11/13 04:31:22;;;;;;;6.90;6.30;;;;;;;-1.77;100.00;97268.16;4972688;28;20784;-72
2022/11/13 04:34:07;;;;;;;6.17;5.57;;;;;;;-1.70;100.00;97262.88;4972680;28;20424;-73
2022/11/13 04:36:52;;;;;;;6.80;6.10;;;;;;;-1.72;100.00;97239.78;4973379;28;20443;-73
2022/11/13 04:39:38;;;;;;;8.23;5.20;;;;;;;-1.81;100.00;97228.97;4973377;28;20424;-72
2022/11/13 04:45:27;;;;;;;7.87;7.10;;;;;;;-1.56;100.00;97253.88;4973509;28;20419;-73
2022/11/13 04:48:12;;;;;;;6.20;5.60;;;;;;;-1.92;100.00;97257.44;4972090;28;20455;-73
2022/11/13 04:50:57;;;;;;;6.40;5.80;;;;;;;-2.32;100.00;97210.63;4985986;28;20472;-73
2022/11/13 04:53:42;;;;;;;6.17;5.57;;;;;;;-2.13;100.00;97235.47;4972164;28;20408;-73
2022/11/13 04:56:28;;;;;;;6.17;5.57;;;;;;;-2.02;100.00;97252.00;4984749;28;20467;-73
2022/11/13 04:59:13;;;;;;;7.70;5.00;;;;;;;-2.18;100.00;97249.06;4972971;28;20412;-73
2022/11/13 05:01:58;;;;;;;9.20;5.03;;;;;;;-1.99;100.00;97244.59;4973029;28;20412;-73
2022/11/13 05:04:43;;;;;;;5.03;4.53;;;;;;;-2.21;100.00;97221.00;4972900;28;21087;-73
2022/11/13 05:07:29;;;;;;;4.83;4.33;;;;;;;-2.24;100.00;97213.69;4973004;28;20455;-73
2022/11/13 05:10:14;;;;;;;5.70;5.20;;;;;;;-2.20;100.00;97219.22;4971542;28;21014;-73
2022/11/13 05:12:59;;;;;;;5.87;4.50;;;;;;;-2.20;100.00;97207.06;4971754;28;20428;-73
2022/11/13 05:15:45;;;;;;;5.03;4.50;;;;;;;-2.18;100.00;97212.78;4974907;28;20486;-73
2022/11/13 05:18:30;;;;;;;6.13;5.60;;;;;;;-2.01;100.00;97220.69;4991998;28;20443;-73
2022/11/13 05:21:16;;;;;;;18.87;5.80;;;;;;;-2.26;100.00;97226.09;4992069;28;20415;-73
2022/11/13 05:24:01;;;;;;;7.03;5.07;;;;;;;-2.14;100.00;97239.84;4986979;28;20432;-73
2022/11/13 05:26:46;;;;;;;5.37;4.87;;;;;;;-2.26;100.00;97225.31;4985376;28;20517;-73
2022/11/13 05:29:32;;;;;;;5.40;4.90;;;;;;;-2.13;100.00;97245.81;4972418;28;20570;-73
2022/11/13 05:32:17;;;;;;;8.93;5.50;;;;;;;-2.30;100.00;97217.16;4972637;28;20434;-72
2022/11/13 05:35:02;;;;;;;7.80;5.13;;;;;;;-2.30;100.00;97235.28;4972635;28;21019;-73
2022/11/13 05:37:47;;;;;;;4.70;4.30;;;;;;;-2.13;100.00;97231.06;4971733;28;20563;-73
2022/11/13 05:40:34;;;;;;;5.13;4.63;;;;;;;-2.29;100.00;97203.19;4971664;28;20416;-73
2022/11/13 05:43:19;;;;;;;6.27;5.10;;;;;;;-2.05;100.00;97222.16;4971491;28;20999;-73
2022/11/13 05:46:07;;;;;;;5.67;4.90;;;;;;;-2.34;100.00;97228.97;4972172;28;20424;-72
2022/11/13 05:48:58;;;;;;;5.20;4.77;;;;;;;-2.12;100.00;97217.09;4985204;28;20456;-73
2022/11/13 05:51:43;;;;;;;4.77;4.20;;;;;;;-2.38;100.00;97192.41;4971939;28;20778;-73
2022/11/13 05:54:28;;;;;;;7.83;7.03;;;;;;;-2.09;100.00;97197.72;4971092;28;20475;-73
2022/11/13 05:57:13;;;;;;;8.07;7.37;;;;;;;-2.02;100.00;97221.72;4972336;28;20580;-73
2022/11/13 05:59:59;;;;;;;10.40;7.17;;;;;;;-2.41;100.00;97182.47;4971634;28;20412;-73
2022/11/13 06:02:44;;;;;;;6.73;4.97;;;;;;;-2.25;100.00;97206.16;4975031;28;21007;-72
2022/11/13 06:05:29;;;;;;;9.83;6.37;;;;;;;-2.42;100.00;97209.38;4976333;28;20951;-73
2022/11/13 06:08:14;;;;;;;5.90;5.33;;;;;;;-2.69;100.00;97203.75;4976517;28;20467;-73
2022/11/13 06:11:05;;;;;;;4.77;4.17;;;;;;;-2.60;100.00;97200.88;4976383;28;20436;-73
2022/11/13 06:13:52;;;;;;;4.27;3.87;;;;;;;-2.64;100.00;97197.16;4975271;28;20427;-72
2022/11/13 06:16:38;;;;;;;4.13;3.83;;;;;;;-2.76;100.00;97171.25;4975737;28;20956;-73
2022/11/13 06:19:23;;;;;;;4.80;4.30;;;;;;;-2.58;100.00;97186.69;4988742;28;20942;-73
2022/11/13 06:22:08;;;;;;;4.80;4.33;;;;;;;-2.44;100.00;97192.47;4975846;28;20507;-73
2022/11/13 06:24:54;;;;;;;5.53;5.03;;;;;;;-2.30;100.00;97213.78;4975999;28;20990;-72
2022/11/13 06:27:39;;;;;;;4.20;3.90;;;;;;;-2.66;100.00;97166.31;4976159;28;20436;-73
2022/11/13 06:30:24;;;;;;;4.70;4.23;;;;;;;-2.35;100.00;97211.06;4988361;28;20464;-73
2022/11/13 06:33:09;;;;;;;6.73;4.73;;;;;;;-2.46;100.00;97205.66;4975783;28;20440;-73
2022/11/13 06:35:55;;;;;;;5.57;4.90;;;;;;;-2.53;100.00;97202.38;4975992;28;20788;-73
2022/11/13 06:38:41;;;;;;;11.07;9.87;;;;;;;-2.29;100.00;97202.41;4975437;28;20448;-73
2022/11/13 06:41:30;;;;;;;8.13;7.33;;;;;;;-2.32;100.00;97211.41;4975551;28;20428;-73
2022/11/13 06:44:15;;;;;;;8.20;7.40;;;;;;;-2.56;100.00;97196.81;4974833;28;20436;-74
2022/11/13 06:47:00;;;;;;;13.23;9.73;;;;;;;-2.73;100.00;97152.69;4963683;28;20451;-73
2022/11/13 06:49:45;;;;;;;15.77;12.87;;;;;;;-2.38;100.00;97174.28;4975764;28;21061;-73
2022/11/13 06:52:30;;;;;;;13.90;12.40;;;;;;;-2.21;100.00;97196.91;4974370;28;20432;-73
2022/11/13 06:55:15;;;;;;;16.27;14.33;;;;;;;-2.60;100.00;97170.59;4975330;28;20540;-73
2022/11/13 06:58:01;;;;;;;14.13;12.73;;;;;;;-2.51;100.00;97197.75;4975210;28;20992;-73
2022/11/13 07:00:46;;;;;;;13.83;10.90;;;;;;;-2.61;100.00;97189.75;4973203;28;20439;-72
2022/11/13 07:03:32;;;;;;;13.60;9.60;;;;;;;-2.54;100.00;97198.19;4987846;28;20431;-73
2022/11/13 07:06:19;;;;;;;12.63;11.20;;;;;;;-2.34;100.00;97189.34;4975911;28;20521;-72
2022/11/13 07:09:04;;;;;;;9.97;8.97;;;;;;;-2.58;100.00;97163.41;4991505;28;20614;-72
2022/11/13 07:11:50;;;;;;;11.20;10.20;;;;;;;-2.39;100.00;97174.50;4992599;28;20918;-72
2022/11/13 07:14:35;;;;;;;19.30;17.00;;;;;;;-2.35;100.00;97160.09;4984491;28;20430;-72
2022/11/13 07:17:20;;;;;;;19.90;15.23;;;;;;;-2.20;100.00;97175.97;4993208;28;20519;-73
2022/11/13 07:20:06;;;;;;;14.70;12.60;;;;;;;-2.14;100.00;97179.47;4993584;28;20424;-73
2022/11/13 07:22:55;;;;;;;13.37;11.17;;;;;;;-2.03;100.00;97177.91;4990589;28;20530;-73
2022/11/13 07:25:40;;;;;;;13.20;10.03;;;;;;;-1.95;100.00;97162.03;4993151;28;20525;-73
2022/11/13 07:28:26;;;;;;;11.87;9.93;;;;;;;-1.88;100.00;97160.88;4993217;28;20465;-73
2022/11/13 07:31:13;;;;;;;38.27;25.60;;;;;;;-1.72;100.00;97161.25;4993229;28;20428;-73
2022/11/13 07:33:58;;;;;;;24.60;16.00;;;;;;;-1.76;100.00;97149.72;4994767;28;20413;-73
2022/11/13 07:36:43;;;;;;;17.37;14.90;;;;;;;-1.80;100.00;97147.59;4994234;28;20458;-73
2022/11/13 07:39:29;;;;;;;20.37;16.23;;;;;;;-1.75;100.00;97144.31;4979376;28;20614;-73
2022/11/13 07:42:14;;;;;;;22.63;17.17;;;;;;;-1.78;100.00;97131.81;4974779;28;20403;-73
2022/11/13 07:44:59;;;;;;;23.30;16.70;;;;;;;-1.81;100.00;97107.16;4973658;28;20580;-73
2022/11/13 07:47:44;;;;;;;23.67;17.80;;;;;;;-1.29;100.00;97140.06;4974490;28;20550;-73
2022/11/13 07:50:32;;;;;;;28.20;22.33;;;;;;;-0.84;100.00;97137.53;4974526;28;20467;-73
2022/11/13 07:53:19;;;;;;;46.80;36.10;;;;;;;-0.69;100.00;97137.78;4974556;28;20427;-73
2022/11/13 07:56:05;;;;;;;40.67;33.20;;;;;;;-0.91;100.00;97105.75;4973476;28;20431;-73
2022/11/13 07:58:50;;;;;;;72.47;48.80;;;;;;;-0.52;100.00;97122.25;4974739;28;20794;-74
2022/11/13 08:01:35;;;;;;;24.90;19.30;;;;;;;-0.58;100.00;97097.19;4963929;28;20972;-74
2022/11/13 08:04:20;;;;;;;21.60;15.97;;;;;;;-0.62;100.00;97086.50;4974891;28;20440;-73
2022/11/13 08:07:06;;;;;;;17.90;16.10;;;;;;;-0.25;100.00;97112.00;4963724;28;20567;-73
2022/11/13 08:09:51;;;;;;;21.20;18.73;;;;;;;-0.25;100.00;97096.41;4973216;28;20798;-73
2022/11/13 08:12:37;;;;;;;33.13;30.10;;;;;;;0.02;100.00;97112.13;4975092;28;20521;-73
2022/11/13 08:15:22;;;;;;;11.27;9.63;;;;;;;0.12;100.00;97119.28;4992647;28;21050;-73
2022/11/13 08:18:07;;;;;;;15.30;13.70;;;;;;;0.17;100.00;97112.34;4993684;28;20447;-73
2022/11/13 08:20:52;;;;;;;18.30;14.80;;;;;;;0.39;100.00;97114.94;4977669;28;21100;-73
2022/11/13 08:23:40;;;;;;;10.23;9.23;;;;;;;0.28;100.00;97110.66;4973428;28;20503;-73
2022/11/13 08:26:25;;;;;;;97.50;71.53;;;;;;;0.36;100.00;97081.63;4973873;28;20424;-71
2022/11/13 08:29:10;;;;;;;41.13;32.80;;;;;;;0.45;100.00;97098.38;4972589;28;20972;-72
2022/11/13 08:31:56;;;;;;;11.27;10.10;;;;;;;0.41;100.00;97083.53;4973706;28;20499;-72
2022/11/13 08:34:41;;;;;;;9.60;8.63;;;;;;;0.33;100.00;97076.13;4973993;28;20428;-72
2022/11/13 08:37:26;;;;;;;7.47;6.63;;;;;;;0.29;100.00;97063.63;4973711;28;20460;-72
2022/11/13 08:40:12;;;;;;;14.77;12.37;;;;;;;0.76;100.00;97088.31;4975386;28;20428;-72
2022/11/13 08:42:59;;;;;;;14.40;12.30;;;;;;;0.78;100.00;97068.81;4994082;28;20420;-72
2022/11/13 08:45:46;;;;;;;12.50;10.73;;;;;;;1.01;100.00;97083.38;4993268;28;20428;-72
2022/11/13 08:48:31;;;;;;;12.30;9.83;;;;;;;0.95;100.00;97063.53;4993414;28;20575;-72
2022/11/13 08:51:17;;;;;;;10.83;8.87;;;;;;;1.04;100.00;97054.22;4992674;28;20595;-72
2022/11/13 08:54:02;;;;;;;11.13;9.60;;;;;;;1.38;100.00;97041.78;4993046;28;20454;-73
2022/11/13 08:56:47;;;;;;;12.87;11.40;;;;;;;1.74;100.00;97036.81;4992190;28;20535;-72
2022/11/13 08:59:39;;;;;;;10.57;9.17;;;;;;;1.99;100.00;97078.66;4992087;28;20479;-72
2022/11/13 09:02:25;;;;;;;15.70;12.80;;;;;;;2.13;100.00;97070.38;4991684;28;20479;-72
2022/11/13 09:05:11;;;;;;;13.27;11.50;;;;;;;2.42;100.00;97062.97;4989886;28;20880;-72
2022/11/13 09:07:57;;;;;;;8.87;7.97;;;;;;;2.24;100.00;97036.25;4961730;28;20975;-72
2022/11/13 09:10:42;;;;;;;12.80;10.27;;;;;;;2.30;100.00;97047.50;4972541;28;20602;-72
2022/11/13 09:13:28;;;;;;;10.33;7.80;;;;;;;2.37;100.00;97042.84;4971778;28;20856;-72
2022/11/13 09:16:13;;;;;;;12.23;10.53;;;;;;;2.55;100.00;97052.81;4992685;28;20447;-72
2022/11/13 09:18:58;;;;;;;11.10;9.90;;;;;;;2.38;100.00;97008.66;4991365;28;20506;-72
2022/11/13 09:21:43;;;;;;;16.20;12.17;;;;;;;2.79;100.00;97034.84;4992478;28;20967;-72
2022/11/13 09:24:28;;;;;;;14.07;12.40;;;;;;;2.96;100.00;97039.88;4980866;28;20492;-72
2022/11/13 09:27:14;;;;;;;12.37;9.30;;;;;;;2.94;100.00;97000.16;4961410;28;20532;-72
2022/11/13 09:29:59;;;;;;;17.80;14.10;;;;;;;3.06;100.00;97023.41;4973962;28;20468;-72
2022/11/13 09:32:44;;;;;;;15.80;11.80;;;;;;;3.38;100.00;97052.69;4975913;28;20524;-72
2022/11/13 09:35:34;;;;;;;18.23;11.63;;;;;;;3.65;100.00;97059.47;4974558;28;20792;-72
2022/11/13 09:38:19;;;;;;;11.63;10.30;;;;;;;3.64;100.00;97037.00;4994138;28;20462;-72
2022/11/13 09:41:20;;;;;;;12.50;10.90;;;;;;;3.77;100.00;97049.53;5001522;28;20415;-72
2022/11/13 09:44:30;;;;;;;11.77;9.67;;;;;;;3.96;100.00;97047.13;5016576;28;20452;-72
2022/11/13 09:47:34;;;;;;;10.20;9.20;;;;;;;4.16;100.00;97047.06;5016671;28;20459;-72
2022/11/13 09:50:26;;;;;;;9.00;7.50;;;;;;;4.60;100.00;97055.00;5016061;28;20536;-73
2022/11/13 09:53:13;;;;;;;9.20;8.10;;;;;;;4.60;100.00;97025.41;4984304;28;20428;-73
2022/11/13 09:56:16;;;;;;;8.50;7.53;;;;;;;5.24;100.00;97069.84;4997073;28;20425;-73
2022/11/13 09:59:10;;;;;;;9.97;6.50;;;;;;;6.23;100.00;97090.50;4995837;28;20439;-73
2022/11/13 10:02:07;;;;;;;11.43;5.60;;;;;;;6.76;100.00;97090.41;4996396;28;20508;-72
2022/11/13 10:05:10;;;;;;;8.80;7.00;;;;;;;6.88;100.00;97064.50;4987811;28;20440;-72
2022/11/13 10:07:55;;;;;;;8.70;6.53;;;;;;;6.98;100.00;97095.91;4968589;28;20456;-73
2022/11/13 10:10:50;;;;;;;6.40;5.80;;;;;;;7.18;100.00;97096.69;4974019;28;20845;-73
2022/11/13 10:13:47;;;;;;;8.57;6.90;;;;;;;7.22;100.00;97095.88;4973567;28;20432;-73
2022/11/13 10:16:39;;;;;;;8.17;6.47;;;;;;;7.25;100.00;97111.06;4991158;28;20532;-73
2022/11/13 10:19:36;;;;;;;9.93;7.20;;;;;;;7.25;100.00;97095.28;4992048;28;20495;-73
2022/11/13 10:22:48;;;;;;;8.40;7.57;;;;;;;7.12;100.00;97090.75;4986099;28;20428;-73
2022/11/13 10:25:36;;;;;;;9.00;8.00;;;;;;;7.24;100.00;97096.34;4984971;28;20440;-73
2022/11/13 10:28:23;;;;;;;8.67;7.40;;;;;;;7.38;100.00;97085.88;4972009;28;20583;-73
2022/11/13 10:31:28;;;;;;;7.83;7.00;;;;;;;7.42;100.00;97076.34;4973064;28;20456;-73
2022/11/13 10:34:16;;;;;;;9.80;6.57;;;;;;;7.46;100.00;97066.81;4976853;28;20459;-73
2022/11/13 10:37:07;;;;;;;8.93;6.50;;;;;;;7.71;100.00;97052.47;4990424;28;20435;-72
2022/11/13 10:39:53;;;;;;;7.63;6.23;;;;;;;7.89;100.00;97048.22;4991352;28;21334;-72
2022/11/13 10:42:40;;;;;;;9.53;7.00;;;;;;;7.95;100.00;97039.16;4991336;28;20482;-72
2022/11/13 10:45:26;;;;;;;9.20;6.63;;;;;;;7.96;100.00;97011.75;4991526;28;20507;-73
2022/11/13 10:48:24;;;;;;;8.40;7.50;;;;;;;8.18;100.00;97029.50;4994967;28;21083;-73
2022/11/13 10:51:30;;;;;;;8.27;7.47;;;;;;;8.30;100.00;97032.44;4991603;28;20459;-73
2022/11/13 10:54:26;;;;;;;8.20;6.50;;;;;;;8.35;100.00;97007.88;4976890;28;20428;-73
2022/11/13 10:57:33;;;;;;;9.20;7.40;;;;;;;8.26;100.00;96958.47;4994689;28;20489;-74
2022/11/13 11:00:21;;;;;;;8.50;7.03;;;;;;;8.64;100.00;96968.75;4995245;28;20523;-74
2022/11/13 11:03:23;;;;;;;8.80;6.87;;;;;;;8.81;100.00;96978.66;4995491;28;20416;-74
2022/11/13 11:06:09;;;;;;;9.83;7.60;;;;;;;8.81;100.00;96971.56;4972079;28;20428;-72
2022/11/13 11:09:05;;;;;;;15.10;7.93;;;;;;;8.82;100.00;96943.34;4976013;28;21181;-72
2022/11/13 11:12:20;;;;;;;11.43;7.70;;;;;;;9.13;100.00;96982.94;4977750;28;20476;-74
2022/11/13 11:15:21;;;;;;;7.20;6.30;;;;;;;8.98;100.00;96938.47;4971622;28;20424;-74
2022/11/13 11:18:23;;;;;;;7.33;6.27;;;;;;;9.23;100.00;96974.03;4987483;28;20789;-74
2022/11/13 11:21:14;;;;;;;8.20;7.20;;;;;;;9.44;100.00;96989.03;4994755;28;20423;-75
2022/11/13 11:24:06;;;;;;;14.83;6.97;;;;;;;9.45;100.00;96987.19;4962795;28;20433;-74
2022/11/13 11:27:08;;;;;;;9.73;7.47;;;;;;;9.49;100.00;96990.78;4988771;28;20443;-74
2022/11/13 11:30:12;;;;;;;11.17;8.47;;;;;;;9.49;100.00;96977.59;4987880;28;20432;-75
2022/11/13 11:33:09;;;;;;;9.30;8.17;;;;;;;9.54;100.00;96980.09;4974218;28;20421;-74
2022/11/13 11:36:05;;;;;;;6.90;6.20;;;;;;;9.47;100.00;96977.09;4975057;28;20936;-74
2022/11/13 11:39:00;;;;;;;8.27;7.23;;;;;;;9.66;100.00;96959.19;4976977;28;20534;-75
2022/11/13 11:41:52;;;;;;;6.53;4.70;;;;;;;10.11;100.00;96974.09;4988459;28;20425;-75
2022/11/13 11:45:20;;;;;;;5.27;4.60;;;;;;;10.09;100.00;96945.34;4991990;28;20818;-75
2022/11/13 11:48:15;;;;;;;4.77;4.37;;;;;;;10.29;100.00;96955.38;4990162;28;21130;-75
2022/11/13 11:51:12;;;;;;;5.60;4.67;;;;;;;10.33;100.00;96966.13;4990054;28;20467;-75
2022/11/13 11:54:15;;;;;;;5.17;4.67;;;;;;;10.22;100.00;96957.69;4995559;28;20427;-74
2022/11/13 11:57:32;;;;;;;4.57;4.13;;;;;;;10.24;100.00;96926.44;4968158;28;20983;-74
2022/11/13 12:00:19;;;;;;;5.80;4.47;;;;;;;10.25;100.00;96935.16;4975857;28;20468;-74
2022/11/13 12:03:22;;;;;;;8.20;6.93;;;;;;;10.26;100.00;96931.41;4976179;28;20417;-74
2022/11/13 12:06:33;;;;;;;4.83;4.40;;;;;;;9.99;100.00;96880.38;4984932;28;20776;-74
2022/11/13 12:09:26;;;;;;;6.90;5.80;;;;;;;10.19;100.00;96896.72;4976666;28;20436;-75
2022/11/13 12:12:24;;;;;;;5.20;4.77;;;;;;;10.33;100.00;96916.66;4989383;28;20806;-75
2022/11/13 12:15:28;;;;;;;6.40;5.07;;;;;;;10.46;100.00;96912.31;4976267;28;20495;-75
2022/11/13 12:18:35;;;;;;;6.53;5.90;;;;;;;10.43;100.00;96899.75;4995957;28;20450;-73
2022/11/13 12:21:23;;;;;;;8.70;5.87;;;;;;;10.13;100.00;96861.72;4995907;28;20427;-73
2022/11/13 12:24:28;;;;;;;5.90;5.30;;;;;;;10.18;100.00;96876.69;4962505;28;20421;-74
2022/11/13 12:27:28;;;;;;;7.40;6.57;;;;;;;10.40;100.00;96883.69;4961155;28;20447;-74
2022/11/13 12:30:18;;;;;;;6.50;5.63;;;;;;;10.50;100.00;96886.81;4979829;28;20471;-74
2022/11/13 12:33:26;;;;;;;7.70;4.77;;;;;;;10.62;100.00;96886.19;4991899;28;20439;-74
2022/11/13 12:36:12;;;;;;;7.23;5.77;;;;;;;10.40;100.00;96888.97;4980005;28;20456;-74
2022/11/13 12:39:47;;;;;;;6.90;6.07;;;;;;;10.26;100.00;96868.78;4973433;28;20451;-74
2022/11/13 12:42:54;;;;;;;9.23;6.33;;;;;;;10.19;100.00;96886.16;4973778;28;20419;-74
2022/11/13 12:45:51;;;;;;;7.43;6.10;;;;;;;10.09;100.00;96874.00;4974005;28;20416;-74
2022/11/13 12:48:42;;;;;;;7.53;6.50;;;;;;;10.16;100.00;96882.28;4992946;28;20443;-74
2022/11/13 12:51:38;;;;;;;7.67;5.60;;;;;;;10.17;100.00;96869.84;4994173;28;20467;-75
2022/11/13 12:54:43;;;;;;;9.70;7.00;;;;;;;10.33;100.00;96882.31;4993424;28;20436;-74
2022/11/13 12:57:28;;;;;;;7.50;6.27;;;;;;;10.22;100.00;96861.78;4993701;28;20491;-74
2022/11/13 13:00:27;;;;;;;7.37;6.13;;;;;;;10.80;100.00;96877.16;4993139;28;20535;-76
2022/11/13 13:03:20;;;;;;;6.87;6.27;;;;;;;10.98;100.00;96877.13;4984132;28;20412;-73
2022/11/13 13:06:24;;;;;;;7.90;6.57;;;;;;;11.01;100.00;96871.97;4973105;28;20480;-73